sensor_id;sensor_type;location;lat;lon;timestamp;P1;durP1;ratioP1;P2;durP2;ratioP2
43509;SDS011;29105;57.764;40.952;2022-11-15T00:02:25;5.95;;;0.32;;
43509;SDS011;29105;57.764;40.952;2022-11-15T00:04:51;5.78;;;0.55;;
43509;SDS011;29105;57.764;40.952;2022-11-15T00:07:17;3.03;;;0.40;;
43509;SDS011;29105;57.764;40.952;2022-11-15T00:09:42;2.80;;;0.25;;
43509;SDS011;29105;57.764;40.952;2022-11-15T00:12:08;2.90;;;0.47;;
43509;SDS011;29105;57.764;40.952;2022-11-15T00:14:34;11.43;;;0.77;;
43509;SDS011;29105;57.764;40.952;2022-11-15T00:16:59;3.58;;;0.45;;
43509;SDS011;29105;57.764;40.952;2022-11-15T00:19:25;1.73;;;0.40;;
43509;SDS011;29105;57.764;40.952;2022-11-15T00:21:51;4.05;;;0.68;;
43509;SDS011;29105;57.764;40.952;2022-11-15T00:24:17;2.17;;;0.43;;
43509;SDS011;29105;57.764;40.952;2022-11-15T00:26:42;3.22;;;0.30;;
43509;SDS011;29105;57.764;40.952;2022-11-15T00:29:08;2.88;;;0.47;;
43509;SDS011;29105;57.764;40.952;2022-11-15T00:31:34;4.68;;;0.65;;
43509;SDS011;29105;57.764;40.952;2022-11-15T00:33:59;1.65;;;0.65;;
43509;SDS011;29105;57.764;40.952;2022-11-15T00:36:25;3.95;;;0.38;;
43509;SDS011;29105;57.764;40.952;2022-11-15T00:38:51;5.05;;;0.35;;
43509;SDS011;29105;57.764;40.952;2022-11-15T00:41:16;0.82;;;0.30;;
43509;SDS011;29105;57.764;40.952;2022-11-15T00:43:42;2.25;;;0.40;;
43509;SDS011;29105;57.764;40.952;2022-11-15T00:46:09;3.40;;;0.40;;
43509;SDS011;29105;57.764;40.952;2022-11-15T00:48:36;1.75;;;0.38;;
43509;SDS011;29105;57.764;40.952;2022-11-15T00:51:02;1.48;;;0.30;;
43509;SDS011;29105;57.764;40.952;2022-11-15T00:53:29;2.50;;;0.57;;
43509;SDS011;29105;57.764;40.952;2022-11-15T00:55:55;2.90;;;0.38;;
43509;SDS011;29105;57.764;40.952;2022-11-15T00:58:21;2.25;;;0.47;;
43509;SDS011;29105;57.764;40.952;2022-11-15T01:00:47;1.48;;;0.40;;
43509;SDS011;29105;57.764;40.952;2022-11-15T01:03:12;2.97;;;0.20;;
43509;SDS011;29105;57.764;40.952;2022-11-15T01:05:38;1.70;;;0.28;;
43509;SDS011;29105;57.764;40.952;2022-11-15T01:08:04;1.42;;;0.68;;
43509;SDS011;29105;57.764;40.952;2022-11-15T01:10:29;0.75;;;0.20;;
43509;SDS011;29105;57.764;40.952;2022-11-15T01:12:57;3.22;;;0.30;;
43509;SDS011;29105;57.764;40.952;2022-11-15T01:15:23;2.17;;;0.35;;
43509;SDS011;29105;57.764;40.952;2022-11-15T01:17:48;0.95;;;0.20;;
43509;SDS011;29105;57.764;40.952;2022-11-15T01:20:16;1.95;;;0.40;;
43509;SDS011;29105;57.764;40.952;2022-11-15T01:22:43;4.18;;;1.00;;
43509;SDS011;29105;57.764;40.952;2022-11-15T01:25:14;3.92;;;0.30;;
43509;SDS011;29105;57.764;40.952;2022-11-15T01:27:40;0.68;;;0.30;;
43509;SDS011;29105;57.764;40.952;2022-11-15T01:30:06;1.60;;;0.30;;
43509;SDS011;29105;57.764;40.952;2022-11-15T01:32:34;0.65;;;0.20;;
43509;SDS011;29105;57.764;40.952;2022-11-15T01:35:00;2.83;;;0.30;;
43509;SDS011;29105;57.764;40.952;2022-11-15T01:37:25;2.75;;;0.38;;
43509;SDS011;29105;57.764;40.952;2022-11-15T01:39:51;1.40;;;0.20;;
43509;SDS011;29105;57.764;40.952;2022-11-15T01:42:17;5.30;;;1.05;;
43509;SDS011;29105;57.764;40.952;2022-11-15T01:44:45;1.17;;;0.30;;
43509;SDS011;29105;57.764;40.952;2022-11-15T01:47:20;0.80;;;0.30;;
43509;SDS011;29105;57.764;40.952;2022-11-15T01:50:05;3.72;;;0.47;;
43509;SDS011;29105;57.764;40.952;2022-11-15T01:52:33;6.50;;;1.15;;
43509;SDS011;29105;57.764;40.952;2022-11-15T01:57:30;1.55;;;0.30;;
43509;SDS011;29105;57.764;40.952;2022-11-15T01:59:55;2.42;;;0.40;;
43509;SDS011;29105;57.764;40.952;2022-11-15T02:02:23;1.95;;;0.30;;
43509;SDS011;29105;57.764;40.952;2022-11-15T02:04:49;4.18;;;0.30;;
43509;SDS011;29105;57.764;40.952;2022-11-15T02:07:15;1.65;;;0.30;;
43509;SDS011;29105;57.764;40.952;2022-11-15T02:09:43;0.90;;;0.22;;
43509;SDS011;29105;57.764;40.952;2022-11-15T02:12:09;8.68;;;0.60;;
43509;SDS011;29105;57.764;40.952;2022-11-15T02:14:37;2.83;;;0.40;;
43509;SDS011;29105;57.764;40.952;2022-11-15T02:19:54;2.65;;;0.20;;
43509;SDS011;29105;57.764;40.952;2022-11-15T02:28:27;4.97;;;0.73;;
43509;SDS011;29105;57.764;40.952;2022-11-15T02:36:42;0.50;;;0.32;;
43509;SDS011;29105;57.764;40.952;2022-11-15T02:42:03;4.30;;;0.70;;
43509;SDS011;29105;57.764;40.952;2022-11-15T02:44:54;3.00;;;0.88;;
43509;SDS011;29105;57.764;40.952;2022-11-15T02:47:21;1.65;;;0.68;;
43509;SDS011;29105;57.764;40.952;2022-11-15T02:49:49;3.65;;;0.75;;
43509;SDS011;29105;57.764;40.952;2022-11-15T02:52:17;1.27;;;0.82;;
43509;SDS011;29105;57.764;40.952;2022-11-15T02:54:57;1.13;;;0.60;;
43509;SDS011;29105;57.764;40.952;2022-11-15T03:00:35;3.40;;;0.60;;
43509;SDS011;29105;57.764;40.952;2022-11-15T03:03:41;4.60;;;1.05;;
43509;SDS011;29105;57.764;40.952;2022-11-15T03:11:50;3.33;;;1.42;;
43509;SDS011;29105;57.764;40.952;2022-11-15T03:14:42;6.38;;;1.58;;
43509;SDS011;29105;57.764;40.952;2022-11-15T03:19:54;3.08;;;1.10;;
43509;SDS011;29105;57.764;40.952;2022-11-15T03:22:22;6.85;;;0.95;;
43509;SDS011;29105;57.764;40.952;2022-11-15T03:24:54;1.60;;;0.88;;
43509;SDS011;29105;57.764;40.952;2022-11-15T03:27:24;8.52;;;1.35;;
43509;SDS011;29105;57.764;40.952;2022-11-15T03:29:54;2.85;;;0.90;;
43509;SDS011;29105;57.764;40.952;2022-11-15T03:32:27;3.13;;;1.10;;
43509;SDS011;29105;57.764;40.952;2022-11-15T03:40:59;4.90;;;1.38;;
43509;SDS011;29105;57.764;40.952;2022-11-15T03:44:14;5.15;;;1.80;;
43509;SDS011;29105;57.764;40.952;2022-11-15T03:46:27;4.15;;;1.40;;
43509;SDS011;29105;57.764;40.952;2022-11-15T03:49:14;5.43;;;1.38;;
43509;SDS011;29105;57.764;40.952;2022-11-15T03:51:43;5.38;;;1.38;;
43509;SDS011;29105;57.764;40.952;2022-11-15T03:54:11;1.10;;;0.77;;
43509;SDS011;29105;57.764;40.952;2022-11-15T03:56:37;2.30;;;0.90;;
43509;SDS011;29105;57.764;40.952;2022-11-15T03:59:03;7.82;;;1.75;;
43509;SDS011;29105;57.764;40.952;2022-11-15T04:01:30;1.58;;;1.10;;
43509;SDS011;29105;57.764;40.952;2022-11-15T04:03:56;2.22;;;1.30;;
43509;SDS011;29105;57.764;40.952;2022-11-15T04:06:22;2.88;;;1.30;;
43509;SDS011;29105;57.764;40.952;2022-11-15T04:08:50;4.03;;;1.30;;
43509;SDS011;29105;57.764;40.952;2022-11-15T04:11:16;4.25;;;1.88;;
43509;SDS011;29105;57.764;40.952;2022-11-15T04:13:42;11.93;;;2.45;;
43509;SDS011;29105;57.764;40.952;2022-11-15T04:16:07;3.13;;;1.05;;
43509;SDS011;29105;57.764;40.952;2022-11-15T04:18:33;10.23;;;1.30;;
43509;SDS011;29105;57.764;40.952;2022-11-15T04:20:59;5.32;;;1.85;;
43509;SDS011;29105;57.764;40.952;2022-11-15T04:23:43;8.98;;;1.50;;
43509;SDS011;29105;57.764;40.952;2022-11-15T04:26:27;9.88;;;2.38;;
43509;SDS011;29105;57.764;40.952;2022-11-15T04:28:53;2.25;;;1.50;;
43509;SDS011;29105;57.764;40.952;2022-11-15T04:31:37;3.03;;;1.45;;
43509;SDS011;29105;57.764;40.952;2022-11-15T04:34:04;8.65;;;2.13;;
43509;SDS011;29105;57.764;40.952;2022-11-15T04:36:29;14.70;;;1.92;;
43509;SDS011;29105;57.764;40.952;2022-11-15T04:39:13;7.85;;;1.85;;
43509;SDS011;29105;57.764;40.952;2022-11-15T04:41:39;5.45;;;2.28;;
43509;SDS011;29105;57.764;40.952;2022-11-15T04:44:05;5.18;;;1.88;;
43509;SDS011;29105;57.764;40.952;2022-11-15T04:46:30;9.70;;;1.33;;
43509;SDS011;29105;57.764;40.952;2022-11-15T04:48:57;2.85;;;1.30;;
43509;SDS011;29105;57.764;40.952;2022-11-15T04:51:23;4.30;;;1.50;;
43509;SDS011;29105;57.764;40.952;2022-11-15T04:53:48;3.92;;;1.92;;
43509;SDS011;29105;57.764;40.952;2022-11-15T04:56:15;10.77;;;2.00;;
43509;SDS011;29105;57.764;40.952;2022-11-15T04:58:41;8.82;;;2.20;;
43509;SDS011;29105;57.764;40.952;2022-11-15T05:01:10;6.22;;;1.58;;
43509;SDS011;29105;57.764;40.952;2022-11-15T05:03:40;6.38;;;2.10;;
43509;SDS011;29105;57.764;40.952;2022-11-15T05:06:24;4.88;;;1.77;;
43509;SDS011;29105;57.764;40.952;2022-11-15T05:08:50;7.85;;;1.95;;
43509;SDS011;29105;57.764;40.952;2022-11-15T05:11:17;5.75;;;2.28;;
43509;SDS011;29105;57.764;40.952;2022-11-15T05:13:43;4.00;;;1.33;;
43509;SDS011;29105;57.764;40.952;2022-11-15T05:16:12;14.65;;;2.90;;
43509;SDS011;29105;57.764;40.952;2022-11-15T05:18:40;4.47;;;1.90;;
43509;SDS011;29105;57.764;40.952;2022-11-15T05:21:07;10.10;;;2.13;;
43509;SDS011;29105;57.764;40.952;2022-11-15T05:23:34;5.40;;;1.60;;
43509;SDS011;29105;57.764;40.952;2022-11-15T05:26:00;10.95;;;2.85;;
43509;SDS011;29105;57.764;40.952;2022-11-15T05:28:26;6.47;;;2.38;;
43509;SDS011;29105;57.764;40.952;2022-11-15T05:30:52;11.32;;;3.30;;
43509;SDS011;29105;57.764;40.952;2022-11-15T05:33:18;14.02;;;3.17;;
43509;SDS011;29105;57.764;40.952;2022-11-15T05:35:48;10.45;;;2.13;;
43509;SDS011;29105;57.764;40.952;2022-11-15T05:38:16;7.85;;;2.28;;
43509;SDS011;29105;57.764;40.952;2022-11-15T05:40:42;14.32;;;2.42;;
43509;SDS011;29105;57.764;40.952;2022-11-15T05:43:08;24.35;;;4.13;;
43509;SDS011;29105;57.764;40.952;2022-11-15T05:45:34;11.90;;;2.30;;
43509;SDS011;29105;57.764;40.952;2022-11-15T05:48:04;10.77;;;2.55;;
43509;SDS011;29105;57.764;40.952;2022-11-15T05:50:31;8.50;;;1.60;;
43509;SDS011;29105;57.764;40.952;2022-11-15T05:52:57;6.85;;;1.75;;
43509;SDS011;29105;57.764;40.952;2022-11-15T05:55:23;8.07;;;2.50;;
43509;SDS011;29105;57.764;40.952;2022-11-15T05:57:49;7.55;;;2.10;;
43509;SDS011;29105;57.764;40.952;2022-11-15T06:00:14;2.90;;;1.40;;
43509;SDS011;29105;57.764;40.952;2022-11-15T06:02:40;4.78;;;1.98;;
43509;SDS011;29105;57.764;40.952;2022-11-15T06:05:06;3.90;;;1.63;;
43509;SDS011;29105;57.764;40.952;2022-11-15T06:07:33;5.80;;;1.77;;
43509;SDS011;29105;57.764;40.952;2022-11-15T06:09:59;4.68;;;1.13;;
43509;SDS011;29105;57.764;40.952;2022-11-15T06:12:25;5.05;;;1.38;;
43509;SDS011;29105;57.764;40.952;2022-11-15T06:14:50;7.53;;;1.20;;
43509;SDS011;29105;57.764;40.952;2022-11-15T06:17:16;4.05;;;1.27;;
43509;SDS011;29105;57.764;40.952;2022-11-15T06:19:42;6.45;;;1.65;;
43509;SDS011;29105;57.764;40.952;2022-11-15T06:22:07;8.70;;;1.27;;
43509;SDS011;29105;57.764;40.952;2022-11-15T06:24:38;3.78;;;1.17;;
43509;SDS011;29105;57.764;40.952;2022-11-15T06:27:04;9.50;;;1.80;;
43509;SDS011;29105;57.764;40.952;2022-11-15T06:29:30;10.13;;;1.65;;
43509;SDS011;29105;57.764;40.952;2022-11-15T06:31:56;4.55;;;1.30;;
43509;SDS011;29105;57.764;40.952;2022-11-15T06:34:21;11.02;;;2.15;;
43509;SDS011;29105;57.764;40.952;2022-11-15T06:36:47;11.00;;;2.50;;
43509;SDS011;29105;57.764;40.952;2022-11-15T06:39:13;8.88;;;1.77;;
43509;SDS011;29105;57.764;40.952;2022-11-15T06:41:39;5.80;;;1.60;;
43509;SDS011;29105;57.764;40.952;2022-11-15T06:44:05;6.55;;;1.52;;
43509;SDS011;29105;57.764;40.952;2022-11-15T06:46:30;8.10;;;1.75;;
43509;SDS011;29105;57.764;40.952;2022-11-15T06:48:56;8.30;;;1.65;;
43509;SDS011;29105;57.764;40.952;2022-11-15T06:51:27;16.48;;;2.25;;
43509;SDS011;29105;57.764;40.952;2022-11-15T06:53:53;16.63;;;2.25;;
43509;SDS011;29105;57.764;40.952;2022-11-15T06:56:19;13.95;;;2.08;;
43509;SDS011;29105;57.764;40.952;2022-11-15T06:58:45;18.42;;;1.40;;
43509;SDS011;29105;57.764;40.952;2022-11-15T07:01:11;10.05;;;1.50;;
43509;SDS011;29105;57.764;40.952;2022-11-15T07:03:40;11.30;;;2.20;;
43509;SDS011;29105;57.764;40.952;2022-11-15T07:06:07;5.20;;;1.27;;
43509;SDS011;29105;57.764;40.952;2022-11-15T07:08:35;6.45;;;1.48;;
43509;SDS011;29105;57.764;40.952;2022-11-15T07:11:02;7.90;;;1.45;;
43509;SDS011;29105;57.764;40.952;2022-11-15T07:13:29;7.35;;;1.00;;
43509;SDS011;29105;57.764;40.952;2022-11-15T07:16:07;11.15;;;1.67;;
43509;SDS011;29105;57.764;40.952;2022-11-15T07:18:34;18.67;;;1.70;;
43509;SDS011;29105;57.764;40.952;2022-11-15T07:21:02;5.55;;;0.98;;
43509;SDS011;29105;57.764;40.952;2022-11-15T07:23:30;18.50;;;1.98;;
43509;SDS011;29105;57.764;40.952;2022-11-15T07:25:57;20.02;;;5.25;;
43509;SDS011;29105;57.764;40.952;2022-11-15T07:28:23;26.25;;;11.02;;
43509;SDS011;29105;57.764;40.952;2022-11-15T07:30:50;7.55;;;4.45;;
43509;SDS011;29105;57.764;40.952;2022-11-15T07:33:15;12.88;;;2.40;;
43509;SDS011;29105;57.764;40.952;2022-11-15T07:35:41;21.50;;;2.45;;
43509;SDS011;29105;57.764;40.952;2022-11-15T07:38:07;9.65;;;2.10;;
43509;SDS011;29105;57.764;40.952;2022-11-15T07:40:34;5.20;;;1.38;;
43509;SDS011;29105;57.764;40.952;2022-11-15T07:43:03;8.60;;;1.55;;
43509;SDS011;29105;57.764;40.952;2022-11-15T07:45:30;9.27;;;2.67;;
43509;SDS011;29105;57.764;40.952;2022-11-15T07:47:56;16.02;;;2.22;;
43509;SDS011;29105;57.764;40.952;2022-11-15T07:50:25;7.15;;;1.08;;
43509;SDS011;29105;57.764;40.952;2022-11-15T07:52:57;5.95;;;0.82;;
43509;SDS011;29105;57.764;40.952;2022-11-15T07:55:24;12.10;;;7.53;;
43509;SDS011;29105;57.764;40.952;2022-11-15T07:57:50;17.55;;;2.00;;
43509;SDS011;29105;57.764;40.952;2022-11-15T08:00:16;7.18;;;1.75;;
43509;SDS011;29105;57.764;40.952;2022-11-15T08:02:44;9.32;;;2.40;;
43509;SDS011;29105;57.764;40.952;2022-11-15T08:05:10;26.30;;;2.38;;
43509;SDS011;29105;57.764;40.952;2022-11-15T08:07:39;7.22;;;1.15;;
43509;SDS011;29105;57.764;40.952;2022-11-15T08:10:05;4.00;;;1.13;;
43509;SDS011;29105;57.764;40.952;2022-11-15T08:12:34;4.93;;;1.20;;
43509;SDS011;29105;57.764;40.952;2022-11-15T08:15:01;12.38;;;1.45;;
43509;SDS011;29105;57.764;40.952;2022-11-15T08:17:29;1.58;;;0.95;;
43509;SDS011;29105;57.764;40.952;2022-11-15T08:19:57;12.90;;;2.53;;
43509;SDS011;29105;57.764;40.952;2022-11-15T08:22:23;10.30;;;1.52;;
43509;SDS011;29105;57.764;40.952;2022-11-15T08:24:49;12.35;;;1.70;;
43509;SDS011;29105;57.764;40.952;2022-11-15T08:27:15;3.90;;;0.65;;
43509;SDS011;29105;57.764;40.952;2022-11-15T08:29:42;9.07;;;1.30;;
43509;SDS011;29105;57.764;40.952;2022-11-15T08:32:09;15.80;;;2.03;;
43509;SDS011;29105;57.764;40.952;2022-11-15T08:34:35;10.23;;;0.80;;
43509;SDS011;29105;57.764;40.952;2022-11-15T08:37:01;7.78;;;1.17;;
43509;SDS011;29105;57.764;40.952;2022-11-15T08:39:26;2.08;;;0.30;;
43509;SDS011;29105;57.764;40.952;2022-11-15T08:41:54;4.43;;;0.40;;
43509;SDS011;29105;57.764;40.952;2022-11-15T08:44:19;1.73;;;0.73;;
43509;SDS011;29105;57.764;40.952;2022-11-15T08:46:46;4.75;;;0.50;;
43509;SDS011;29105;57.764;40.952;2022-11-15T08:49:12;10.43;;;1.08;;
43509;SDS011;29105;57.764;40.952;2022-11-15T08:51:37;8.50;;;0.68;;
43509;SDS011;29105;57.764;40.952;2022-11-15T08:54:05;5.15;;;0.98;;
43509;SDS011;29105;57.764;40.952;2022-11-15T08:56:30;6.63;;;1.40;;
43509;SDS011;29105;57.764;40.952;2022-11-15T08:58:56;22.17;;;1.85;;
43509;SDS011;29105;57.764;40.952;2022-11-15T09:01:22;25.92;;;2.28;;
43509;SDS011;29105;57.764;40.952;2022-11-15T09:03:50;8.98;;;2.15;;
43509;SDS011;29105;57.764;40.952;2022-11-15T09:06:16;27.50;;;2.90;;
43509;SDS011;29105;57.764;40.952;2022-11-15T09:08:42;27.83;;;3.72;;
43509;SDS011;29105;57.764;40.952;2022-11-15T09:11:08;6.63;;;1.25;;
43509;SDS011;29105;57.764;40.952;2022-11-15T09:13:35;9.05;;;1.45;;
43509;SDS011;29105;57.764;40.952;2022-11-15T09:16:04;15.77;;;2.60;;
43509;SDS011;29105;57.764;40.952;2022-11-15T09:18:30;4.78;;;0.93;;
43509;SDS011;29105;57.764;40.952;2022-11-15T09:20:59;8.73;;;0.88;;
43509;SDS011;29105;57.764;40.952;2022-11-15T09:23:27;6.53;;;1.60;;
43509;SDS011;29105;57.764;40.952;2022-11-15T09:25:57;3.35;;;0.82;;
43509;SDS011;29105;57.764;40.952;2022-11-15T09:28:28;6.05;;;1.52;;
43509;SDS011;29105;57.764;40.952;2022-11-15T09:30:57;6.47;;;0.70;;
43509;SDS011;29105;57.764;40.952;2022-11-15T09:33:27;25.08;;;1.20;;
43509;SDS011;29105;57.764;40.952;2022-11-15T09:35:53;10.57;;;1.30;;
43509;SDS011;29105;57.764;40.952;2022-11-15T09:38:19;2.17;;;0.50;;
43509;SDS011;29105;57.764;40.952;2022-11-15T09:40:47;4.88;;;0.80;;
43509;SDS011;29105;57.764;40.952;2022-11-15T09:48:54;3.80;;;0.47;;
43509;SDS011;29105;57.764;40.952;2022-11-15T09:51:55;1.98;;;0.50;;
43509;SDS011;29105;57.764;40.952;2022-11-15T09:56:51;2.70;;;0.63;;
43509;SDS011;29105;57.764;40.952;2022-11-15T09:59:23;2.70;;;0.60;;
43509;SDS011;29105;57.764;40.952;2022-11-15T10:04:54;5.45;;;0.63;;
43509;SDS011;29105;57.764;40.952;2022-11-15T10:09:53;9.88;;;0.50;;
43509;SDS011;29105;57.764;40.952;2022-11-15T10:12:23;3.65;;;0.35;;
43509;SDS011;29105;57.764;40.952;2022-11-15T10:14:50;0.95;;;0.30;;
43509;SDS011;29105;57.764;40.952;2022-11-15T10:17:29;2.80;;;0.40;;
43509;SDS011;29105;57.764;40.952;2022-11-15T10:22:55;8.95;;;0.73;;
43509;SDS011;29105;57.764;40.952;2022-11-15T10:25:28;2.05;;;0.70;;
43509;SDS011;29105;57.764;40.952;2022-11-15T10:27:56;7.00;;;0.60;;
43509;SDS011;29105;57.764;40.952;2022-11-15T10:30:59;24.48;;;2.58;;
43509;SDS011;29105;57.764;40.952;2022-11-15T10:33:39;11.50;;;2.13;;
43509;SDS011;29105;57.764;40.952;2022-11-15T10:41:18;5.20;;;1.73;;
43509;SDS011;29105;57.764;40.952;2022-11-15T10:43:45;14.18;;;2.85;;
43509;SDS011;29105;57.764;40.952;2022-11-15T10:46:26;11.48;;;1.25;;
43509;SDS011;29105;57.764;40.952;2022-11-15T10:48:51;5.80;;;1.00;;
43509;SDS011;29105;57.764;40.952;2022-11-15T10:51:21;3.17;;;0.68;;
43509;SDS011;29105;57.764;40.952;2022-11-15T10:53:51;5.13;;;0.90;;
43509;SDS011;29105;57.764;40.952;2022-11-15T10:56:17;11.52;;;2.10;;
43509;SDS011;29105;57.764;40.952;2022-11-15T10:58:50;20.15;;;2.75;;
43509;SDS011;29105;57.764;40.952;2022-11-15T11:01:19;17.05;;;1.50;;
43509;SDS011;29105;57.764;40.952;2022-11-15T11:06:29;4.55;;;0.77;;
43509;SDS011;29105;57.764;40.952;2022-11-15T11:11:48;4.57;;;1.27;;
43509;SDS011;29105;57.764;40.952;2022-11-15T11:14:22;12.90;;;1.20;;
43509;SDS011;29105;57.764;40.952;2022-11-15T11:17:03;8.77;;;1.15;;
43509;SDS011;29105;57.764;40.952;2022-11-15T11:22:27;14.23;;;2.55;;
43509;SDS011;29105;57.764;40.952;2022-11-15T11:35:26;1.25;;;0.40;;
43509;SDS011;29105;57.764;40.952;2022-11-15T11:40:32;3.80;;;0.75;;
43509;SDS011;29105;57.764;40.952;2022-11-15T11:50:41;3.50;;;0.90;;
43509;SDS011;29105;57.764;40.952;2022-11-15T11:55:43;4.53;;;0.60;;
43509;SDS011;29105;57.764;40.952;2022-11-15T11:58:16;14.57;;;2.30;;
43509;SDS011;29105;57.764;40.952;2022-11-15T12:05:50;5.68;;;0.80;;
43509;SDS011;29105;57.764;40.952;2022-11-15T12:16:59;0.90;;;0.50;;
43509;SDS011;29105;57.764;40.952;2022-11-15T12:19:25;5.47;;;1.17;;
43509;SDS011;29105;57.764;40.952;2022-11-15T12:27:45;8.75;;;1.77;;
43509;SDS011;29105;57.764;40.952;2022-11-15T12:30:19;7.60;;;1.55;;
43509;SDS011;29105;57.764;40.952;2022-11-15T12:32:53;7.82;;;1.00;;
43509;SDS011;29105;57.764;40.952;2022-11-15T12:35:25;7.78;;;1.25;;
43509;SDS011;29105;57.764;40.952;2022-11-15T12:38:00;2.65;;;1.38;;
43509;SDS011;29105;57.764;40.952;2022-11-15T12:40:29;17.15;;;2.72;;
43509;SDS011;29105;57.764;40.952;2022-11-15T12:42:59;5.00;;;1.25;;
43509;SDS011;29105;57.764;40.952;2022-11-15T12:45:27;5.55;;;1.30;;
43509;SDS011;29105;57.764;40.952;2022-11-15T12:58:44;4.18;;;1.50;;
43509;SDS011;29105;57.764;40.952;2022-11-15T13:06:44;8.95;;;2.92;;
43509;SDS011;29105;57.764;40.952;2022-11-15T13:11:58;5.53;;;1.95;;
43509;SDS011;29105;57.764;40.952;2022-11-15T13:19:59;3.35;;;1.48;;
43509;SDS011;29105;57.764;40.952;2022-11-15T13:33:15;9.52;;;2.05;;
43509;SDS011;29105;57.764;40.952;2022-11-15T13:35:51;6.93;;;2.47;;
43509;SDS011;29105;57.764;40.952;2022-11-15T13:38:26;5.10;;;2.28;;
43509;SDS011;29105;57.764;40.952;2022-11-15T13:40:55;4.80;;;1.80;;
43509;SDS011;29105;57.764;40.952;2022-11-15T13:48:35;12.40;;;2.45;;
43509;SDS011;29105;57.764;40.952;2022-11-15T13:51:05;6.93;;;1.77;;
43509;SDS011;29105;57.764;40.952;2022-11-15T13:57:20;16.17;;;2.97;;
43509;SDS011;29105;57.764;40.952;2022-11-15T14:00:00;4.63;;;1.98;;
43509;SDS011;29105;57.764;40.952;2022-11-15T14:02:31;10.15;;;2.05;;
43509;SDS011;29105;57.764;40.952;2022-11-15T14:07:53;7.47;;;2.45;;
43509;SDS011;29105;57.764;40.952;2022-11-15T14:10:36;13.50;;;2.70;;
43509;SDS011;29105;57.764;40.952;2022-11-15T14:13:03;7.65;;;2.30;;
43509;SDS011;29105;57.764;40.952;2022-11-15T14:15:31;18.60;;;3.80;;
43509;SDS011;29105;57.764;40.952;2022-11-15T14:18:00;6.43;;;2.58;;
43509;SDS011;29105;57.764;40.952;2022-11-15T14:20:34;8.65;;;2.13;;
43509;SDS011;29105;57.764;40.952;2022-11-15T14:23:01;7.47;;;2.38;;
43509;SDS011;29105;57.764;40.952;2022-11-15T14:25:34;10.10;;;2.08;;
43509;SDS011;29105;57.764;40.952;2022-11-15T14:30:55;4.57;;;2.22;;
43509;SDS011;29105;57.764;40.952;2022-11-15T14:36:10;15.30;;;1.92;;
43509;SDS011;29105;57.764;40.952;2022-11-15T14:38:41;3.78;;;1.17;;
43509;SDS011;29105;57.764;40.952;2022-11-15T14:41:20;4.55;;;1.40;;
43509;SDS011;29105;57.764;40.952;2022-11-15T14:43:48;4.18;;;1.98;;
43509;SDS011;29105;57.764;40.952;2022-11-15T14:46:14;4.55;;;1.83;;
43509;SDS011;29105;57.764;40.952;2022-11-15T14:48:40;6.55;;;2.15;;
43509;SDS011;29105;57.764;40.952;2022-11-15T14:51:12;4.75;;;2.08;;
43509;SDS011;29105;57.764;40.952;2022-11-15T14:53:40;11.52;;;1.73;;
43509;SDS011;29105;57.764;40.952;2022-11-15T14:56:06;3.60;;;1.48;;
43509;SDS011;29105;57.764;40.952;2022-11-15T14:58:32;3.55;;;1.33;;
43509;SDS011;29105;57.764;40.952;2022-11-15T15:00:58;17.10;;;3.22;;
43509;SDS011;29105;57.764;40.952;2022-11-15T15:03:25;4.22;;;1.55;;
43509;SDS011;29105;57.764;40.952;2022-11-15T15:05:51;4.15;;;1.70;;
43509;SDS011;29105;57.764;40.952;2022-11-15T15:08:16;6.32;;;2.47;;
43509;SDS011;29105;57.764;40.952;2022-11-15T15:10:43;10.45;;;3.28;;
43509;SDS011;29105;57.764;40.952;2022-11-15T15:13:15;6.35;;;2.53;;
43509;SDS011;29105;57.764;40.952;2022-11-15T15:15:45;8.48;;;3.28;;
43509;SDS011;29105;57.764;40.952;2022-11-15T15:18:11;10.95;;;2.13;;
43509;SDS011;29105;57.764;40.952;2022-11-15T15:20:38;5.43;;;2.28;;
43509;SDS011;29105;57.764;40.952;2022-11-15T15:23:24;8.77;;;2.20;;
43509;SDS011;29105;57.764;40.952;2022-11-15T15:25:54;8.00;;;2.38;;
43509;SDS011;29105;57.764;40.952;2022-11-15T15:28:19;9.27;;;2.95;;
43509;SDS011;29105;57.764;40.952;2022-11-15T15:30:45;6.35;;;1.80;;
43509;SDS011;29105;57.764;40.952;2022-11-15T15:33:11;6.78;;;2.00;;
43509;SDS011;29105;57.764;40.952;2022-11-15T15:35:37;9.48;;;1.85;;
43509;SDS011;29105;57.764;40.952;2022-11-15T15:38:03;4.85;;;1.60;;
43509;SDS011;29105;57.764;40.952;2022-11-15T15:40:30;15.57;;;2.10;;
43509;SDS011;29105;57.764;40.952;2022-11-15T15:42:57;8.55;;;1.85;;
43509;SDS011;29105;57.764;40.952;2022-11-15T15:45:24;7.22;;;1.70;;
43509;SDS011;29105;57.764;40.952;2022-11-15T15:47:50;3.75;;;1.33;;
43509;SDS011;29105;57.764;40.952;2022-11-15T15:50:26;10.18;;;1.73;;
43509;SDS011;29105;57.764;40.952;2022-11-15T15:52:55;18.20;;;3.00;;
43509;SDS011;29105;57.764;40.952;2022-11-15T15:55:22;11.10;;;2.97;;
43509;SDS011;29105;57.764;40.952;2022-11-15T15:57:48;17.65;;;2.85;;
43509;SDS011;29105;57.764;40.952;2022-11-15T16:00:14;12.55;;;2.03;;
43509;SDS011;29105;57.764;40.952;2022-11-15T16:02:42;9.48;;;2.85;;
43509;SDS011;29105;57.764;40.952;2022-11-15T16:05:08;8.75;;;2.05;;
43509;SDS011;29105;57.764;40.952;2022-11-15T16:07:34;5.18;;;1.90;;
43509;SDS011;29105;57.764;40.952;2022-11-15T16:10:00;12.65;;;3.55;;
43509;SDS011;29105;57.764;40.952;2022-11-15T16:12:29;5.25;;;2.38;;
43509;SDS011;29105;57.764;40.952;2022-11-15T16:14:56;24.52;;;4.78;;
43509;SDS011;29105;57.764;40.952;2022-11-15T16:17:26;6.50;;;2.85;;
43509;SDS011;29105;57.764;40.952;2022-11-15T16:19:53;14.48;;;3.13;;
43509;SDS011;29105;57.764;40.952;2022-11-15T16:22:20;13.98;;;3.60;;
43509;SDS011;29105;57.764;40.952;2022-11-15T16:24:45;25.85;;;7.10;;
43509;SDS011;29105;57.764;40.952;2022-11-15T16:27:15;14.68;;;5.03;;
43509;SDS011;29105;57.764;40.952;2022-11-15T16:29:44;16.85;;;3.22;;
43509;SDS011;29105;57.764;40.952;2022-11-15T16:32:10;8.10;;;3.42;;
43509;SDS011;29105;57.764;40.952;2022-11-15T16:34:38;5.95;;;2.05;;
43509;SDS011;29105;57.764;40.952;2022-11-15T16:37:04;10.57;;;2.90;;
43509;SDS011;29105;57.764;40.952;2022-11-15T16:39:30;13.18;;;2.90;;
43509;SDS011;29105;57.764;40.952;2022-11-15T16:41:57;8.18;;;1.90;;
43509;SDS011;29105;57.764;40.952;2022-11-15T16:44:23;3.00;;;1.60;;
43509;SDS011;29105;57.764;40.952;2022-11-15T16:46:49;4.03;;;1.45;;
43509;SDS011;29105;57.764;40.952;2022-11-15T16:49:16;7.03;;;1.83;;
43509;SDS011;29105;57.764;40.952;2022-11-15T16:51:45;6.90;;;1.75;;
43509;SDS011;29105;57.764;40.952;2022-11-15T16:54:14;17.52;;;4.80;;
43509;SDS011;29105;57.764;40.952;2022-11-15T16:56:40;11.90;;;2.47;;
43509;SDS011;29105;57.764;40.952;2022-11-15T16:59:08;5.78;;;2.13;;
43509;SDS011;29105;57.764;40.952;2022-11-15T17:04:13;9.18;;;2.33;;
43509;SDS011;29105;57.764;40.952;2022-11-15T17:06:41;7.45;;;2.28;;
43509;SDS011;29105;57.764;40.952;2022-11-15T17:09:10;7.50;;;2.35;;
43509;SDS011;29105;57.764;40.952;2022-11-15T17:11:39;8.25;;;2.00;;
43509;SDS011;29105;57.764;40.952;2022-11-15T17:14:05;18.13;;;2.63;;
43509;SDS011;29105;57.764;40.952;2022-11-15T17:16:31;7.72;;;3.03;;
43509;SDS011;29105;57.764;40.952;2022-11-15T17:18:58;5.15;;;2.63;;
43509;SDS011;29105;57.764;40.952;2022-11-15T17:21:24;13.60;;;2.53;;
43509;SDS011;29105;57.764;40.952;2022-11-15T17:23:54;11.88;;;3.28;;
43509;SDS011;29105;57.764;40.952;2022-11-15T17:26:20;12.90;;;2.63;;